createdAt,value
2022-08-27T00:01:28.728Z,18.95
2022-08-27T00:03:56.604Z,18.95
2022-08-27T00:06:25.033Z,18.95
2022-08-27T00:08:53.443Z,18.94
2022-08-27T00:11:25.372Z,18.97
2022-08-27T00:13:53.307Z,18.98
2022-08-27T00:16:21.239Z,18.97
2022-08-27T00:18:49.338Z,19.03
2022-08-27T00:21:17.616Z,19.06
2022-08-27T00:23:45.314Z,19.09
2022-08-27T00:26:13.777Z,19.14
2022-08-27T00:28:43.154Z,19.15
2022-08-27T00:31:12.192Z,19.10
2022-08-27T00:33:40.235Z,19.05
2022-08-27T00:36:08.315Z,19.06
2022-08-27T00:38:36.279Z,19.07
2022-08-27T00:41:04.012Z,19.12
2022-08-27T00:43:43.690Z,19.12
2022-08-27T00:46:19.284Z,19.15
2022-08-27T00:48:47.292Z,19.16
2022-08-27T00:51:14.988Z,19.17
2022-08-27T00:53:42.613Z,19.11
2022-08-27T00:56:15.609Z,19.11
2022-08-27T00:58:45.452Z,19.15
2022-08-27T01:01:16.273Z,19.17
2022-08-27T01:03:47.383Z,19.18
2022-08-27T01:06:16.567Z,19.18
2022-08-27T01:08:47.082Z,19.18
2022-08-27T01:11:14.989Z,19.18
2022-08-27T01:13:58.815Z,19.17
2022-08-27T01:16:33.937Z,19.14
2022-08-27T01:19:02.119Z,19.12
2022-08-27T01:21:36.675Z,19.07
2022-08-27T01:24:07.639Z,19.05
2022-08-27T01:26:36.998Z,19.03
2022-08-27T01:29:04.894Z,19.00
2022-08-27T01:31:32.682Z,18.97
2022-08-27T01:34:04.509Z,18.87
2022-08-27T01:36:32.404Z,18.85
2022-08-27T01:39:00.149Z,18.83
2022-08-27T01:41:28.373Z,18.80
2022-08-27T01:43:57.979Z,18.73
2022-08-27T01:46:27.549Z,18.75
2022-08-27T01:48:55.841Z,18.74
2022-08-27T01:51:23.738Z,18.69
2022-08-27T01:53:51.521Z,18.67
2022-08-27T01:56:19.232Z,18.67
2022-08-27T01:58:47.162Z,18.59
2022-08-27T02:01:17.436Z,18.57
2022-08-27T02:03:47.302Z,18.51
2022-08-27T02:06:15.806Z,18.41
2022-08-27T02:08:43.745Z,18.38
2022-08-27T02:11:11.396Z,18.38
2022-08-27T02:13:39.220Z,18.39
2022-08-27T02:16:07.338Z,18.41
2022-08-27T02:18:38.479Z,18.31
2022-08-27T02:21:09.369Z,18.31
2022-08-27T02:23:37.185Z,18.27
2022-08-27T02:26:04.853Z,18.25
2022-08-27T02:28:32.588Z,18.16
2022-08-27T02:31:00.847Z,18.08
2022-08-27T02:33:28.691Z,18.11
2022-08-27T02:35:57.684Z,18.08
2022-08-27T02:38:25.813Z,18.15
2022-08-27T02:40:54.300Z,18.22
2022-08-27T02:43:25.287Z,18.23
2022-08-27T02:45:53.308Z,18.27
2022-08-27T02:48:21.432Z,18.29
2022-08-27T02:50:49.173Z,18.29
2022-08-27T02:53:18.786Z,18.25
2022-08-27T02:55:46.901Z,18.24
2022-08-27T02:58:16.795Z,18.24
2022-08-27T03:00:44.563Z,18.26
2022-08-27T03:03:12.327Z,18.23
2022-08-27T03:05:40.532Z,18.21
2022-08-27T03:08:08.823Z,18.19
2022-08-27T03:10:38.184Z,18.20
2022-08-27T03:13:05.896Z,18.20
2022-08-27T03:15:33.562Z,18.19
2022-08-27T03:18:19.873Z,18.19
2022-08-27T03:20:50.419Z,18.09
2022-08-27T03:23:19.016Z,18.08
2022-08-27T03:25:51.466Z,18.11
2022-08-27T03:28:22.444Z,18.15
2022-08-27T03:30:52.186Z,18.18
2022-08-27T03:33:20.786Z,18.15
2022-08-27T03:35:51.742Z,18.19
2022-08-27T03:38:19.932Z,18.18
2022-08-27T03:40:49.463Z,18.19
2022-08-27T03:43:18.672Z,18.23
2022-08-27T03:45:50.377Z,18.22
2022-08-27T03:48:30.425Z,18.20
2022-08-27T03:50:58.113Z,18.18
2022-08-27T03:53:26.107Z,18.17
2022-08-27T03:55:55.138Z,18.19
2022-08-27T03:58:22.839Z,18.18
2022-08-27T04:00:50.567Z,18.16
2022-08-27T04:03:18.471Z,18.15
2022-08-27T04:05:46.118Z,18.15
2022-08-27T04:08:14.080Z,18.18
2022-08-27T04:10:41.927Z,18.18
2022-08-27T04:13:11.262Z,18.17
2022-08-27T04:15:43.857Z,18.13
2022-08-27T04:18:12.033Z,18.14
2022-08-27T04:20:40.111Z,18.16
2022-08-27T04:23:07.918Z,18.15
2022-08-27T04:25:35.888Z,18.15
2022-08-27T04:28:04.093Z,18.14
2022-08-27T04:30:33.512Z,18.14
2022-08-27T04:33:01.468Z,18.14
2022-08-27T04:35:29.489Z,18.17
2022-08-27T04:37:57.586Z,18.18
2022-08-27T04:40:46.116Z,18.17
2022-08-27T04:43:14.778Z,18.15
2022-08-27T04:45:49.251Z,18.12
2022-08-27T04:48:19.276Z,18.14
2022-08-27T04:50:48.276Z,18.19
2022-08-27T04:53:18.071Z,18.19
2022-08-27T04:55:46.656Z,18.21
2022-08-27T04:58:15.098Z,18.24
2022-08-27T05:00:44.009Z,18.26
2022-08-27T05:03:13.368Z,18.25
2022-08-27T05:05:42.691Z,18.26
2022-08-27T05:08:12.517Z,18.26
2022-08-27T05:10:41.833Z,18.26
2022-08-27T05:13:09.840Z,18.28
2022-08-27T05:15:37.857Z,18.27
2022-08-27T05:18:05.914Z,18.28
2022-08-27T05:20:38.906Z,18.25
2022-08-27T05:23:06.599Z,18.24
2022-08-27T05:25:39.221Z,18.25
2022-08-27T05:28:07.076Z,18.27
2022-08-27T05:30:37.408Z,18.30
2022-08-27T05:33:05.257Z,18.30
2022-08-27T05:35:33.838Z,18.29
2022-08-27T05:38:03.091Z,18.31
2022-08-27T05:40:31.035Z,18.33
2022-08-27T05:42:59.050Z,18.34
2022-08-27T05:45:27.080Z,18.37
2022-08-27T05:47:55.302Z,18.36
2022-08-27T05:50:23.783Z,18.37
2022-08-27T05:52:51.735Z,18.36
2022-08-27T05:55:21.066Z,18.38
2022-08-27T05:57:48.858Z,18.41
2022-08-27T06:00:34.706Z,18.41
2022-08-27T06:03:02.614Z,18.44
2022-08-27T06:05:30.551Z,18.45
2022-08-27T06:07:58.414Z,18.45
2022-08-27T06:10:27.785Z,18.46
2022-08-27T06:12:57.136Z,18.47
2022-08-27T06:15:25.042Z,18.47
2022-08-27T06:17:53.105Z,18.48
2022-08-27T06:20:20.874Z,18.50
2022-08-27T06:22:48.754Z,18.51
2022-08-27T06:25:16.889Z,18.52
2022-08-27T06:27:46.970Z,18.56
2022-08-27T06:30:17.524Z,18.58
2022-08-27T06:32:45.634Z,18.57
2022-08-27T06:35:13.385Z,18.59
2022-08-27T06:37:41.315Z,18.61
2022-08-27T06:40:10.824Z,18.58
2022-08-27T06:42:38.587Z,18.62
2022-08-27T06:45:10.611Z,18.63
2022-08-27T06:47:38.317Z,18.65
2022-08-27T06:50:06.999Z,18.68
2022-08-27T06:52:34.729Z,18.72
2022-08-27T06:55:02.634Z,18.76
2022-08-27T06:57:30.373Z,18.74
2022-08-27T06:59:58.167Z,18.79
2022-08-27T07:02:29.092Z,18.77
2022-08-27T07:04:56.969Z,18.81
2022-08-27T07:07:31.168Z,18.87
2022-08-27T07:10:04.242Z,18.96
2022-08-27T07:12:32.337Z,19.03
2022-08-27T07:15:00.027Z,19.06
2022-08-27T07:17:29.053Z,19.11
2022-08-27T07:19:56.785Z,19.16
2022-08-27T07:22:24.495Z,19.20
2022-08-27T07:24:53.646Z,19.23
2022-08-27T07:27:21.889Z,19.24
2022-08-27T07:29:49.547Z,19.24
2022-08-27T07:32:18.365Z,19.29
2022-08-27T07:34:47.603Z,19.30
2022-08-27T07:37:15.720Z,19.35
2022-08-27T07:39:43.451Z,19.38
2022-08-27T07:42:28.459Z,19.42
2022-08-27T07:44:56.233Z,19.40
2022-08-27T07:47:24.156Z,19.44
2022-08-27T07:49:54.672Z,19.32
2022-08-27T07:52:25.991Z,19.35
2022-08-27T07:54:54.420Z,19.39
2022-08-27T07:57:22.114Z,19.38
2022-08-27T07:59:49.817Z,19.40
2022-08-27T08:02:17.613Z,19.48
2022-08-27T08:04:45.344Z,19.51
2022-08-27T08:07:14.610Z,19.60
2022-08-27T08:09:42.322Z,19.69
2022-08-27T08:12:10.617Z,19.71
2022-08-27T08:14:38.323Z,19.69
2022-08-27T08:17:10.620Z,19.76
2022-08-27T08:19:38.909Z,19.83
2022-08-27T08:22:06.574Z,19.82
2022-08-27T08:24:36.465Z,19.86
2022-08-27T08:27:07.476Z,19.96
2022-08-27T08:29:35.799Z,20.07
2022-08-27T08:32:04.169Z,20.19
2022-08-27T08:34:32.133Z,20.30
2022-08-27T08:37:00.318Z,20.35
2022-08-27T08:39:28.201Z,20.48
2022-08-27T08:42:01.609Z,20.55
2022-08-27T08:44:37.056Z,20.66
2022-08-27T08:47:08.608Z,20.69
2022-08-27T08:49:42.389Z,20.80
2022-08-27T08:52:30.601Z,20.87
2022-08-27T08:55:06.632Z,20.94
2022-08-27T08:57:40.008Z,21.02
2022-08-27T09:00:12.476Z,21.06
2022-08-27T09:02:41.298Z,21.13
2022-08-27T09:05:11.531Z,21.00
2022-08-27T09:07:45.759Z,20.99
2022-08-27T09:10:21.238Z,21.05
2022-08-27T09:12:52.194Z,20.87
2022-08-27T09:15:21.838Z,20.69
2022-08-27T09:17:50.682Z,20.83
2022-08-27T09:20:20.668Z,20.98
2022-08-27T09:22:59.433Z,21.05
2022-08-27T09:25:30.454Z,21.19
2022-08-27T09:28:56.493Z,21.23
2022-08-27T09:31:25.520Z,21.09
2022-08-27T09:33:56.520Z,20.96
2022-08-27T09:36:25.219Z,21.12
2022-08-27T09:38:54.672Z,21.18
2022-08-27T09:41:28.383Z,21.06
2022-08-27T09:44:00.379Z,21.04
2022-08-27T09:46:30.030Z,20.94
2022-08-27T09:48:57.674Z,21.04
2022-08-27T09:51:27.702Z,21.15
2022-08-27T09:53:57.117Z,21.21
2022-08-27T09:56:29.525Z,21.08
2022-08-27T09:59:03.868Z,21.22
2022-08-27T10:01:34.423Z,21.18
2022-08-27T10:04:07.538Z,21.12
2022-08-27T10:06:35.549Z,21.14
2022-08-27T10:09:07.855Z,21.25
2022-08-27T10:11:38.906Z,21.28
2022-08-27T10:14:13.703Z,21.41
2022-08-27T10:16:57.078Z,21.49
2022-08-27T10:19:38.644Z,21.52
2022-08-27T10:22:13.524Z,21.70
2022-08-27T10:24:53.323Z,21.77
2022-08-27T10:27:27.333Z,21.79
2022-08-27T10:30:02.062Z,21.70
2022-08-27T10:32:43.781Z,21.78
2022-08-27T10:35:16.400Z,21.64
2022-08-27T10:37:52.259Z,21.90
2022-08-27T10:40:23.519Z,22.11
2022-08-27T10:42:59.688Z,21.66
2022-08-27T10:45:41.580Z,21.42
2022-08-27T10:48:23.242Z,21.75
2022-08-27T10:50:55.621Z,22.06
2022-08-27T10:53:32.176Z,22.49
2022-08-27T10:56:11.320Z,22.97
2022-08-27T10:58:49.460Z,22.73
2022-08-27T11:01:22.089Z,23.22
2022-08-27T11:03:54.603Z,23.65
2022-08-27T11:06:26.306Z,23.82
2022-08-27T11:08:58.942Z,23.25
2022-08-27T11:12:10.503Z,23.16
2022-08-27T11:14:26.814Z,23.79
2022-08-27T11:16:58.171Z,24.38
2022-08-27T11:19:33.062Z,24.86
2022-08-27T11:22:06.423Z,25.12
2022-08-27T11:24:39.646Z,24.65
2022-08-27T11:27:09.155Z,24.85
2022-08-27T11:29:43.207Z,24.57
2022-08-27T11:32:19.391Z,24.92
2022-08-27T11:34:52.272Z,24.38
2022-08-27T11:37:38.748Z,24.04
2022-08-27T11:40:32.697Z,23.93
2022-08-27T11:43:04.321Z,24.26
2022-08-27T11:45:38.260Z,24.40
2022-08-27T11:48:18.211Z,24.28
2022-08-27T11:50:56.850Z,24.59
2022-08-27T11:53:42.820Z,24.98
2022-08-27T11:56:38.829Z,25.07
2022-08-27T11:59:12.793Z,25.04
2022-08-27T12:01:40.941Z,24.84
2022-08-27T12:04:23.648Z,24.30
2022-08-27T12:07:00.703Z,24.49
2022-08-27T12:09:28.942Z,24.62
2022-08-27T12:12:04.650Z,24.36
2022-08-27T12:14:44.602Z,24.19
2022-08-27T12:17:18.001Z,23.60
2022-08-27T12:19:57.560Z,23.91
2022-08-27T12:22:55.539Z,23.79
2022-08-27T12:25:23.656Z,23.77
2022-08-27T12:27:57.566Z,24.03
2022-08-27T12:30:31.497Z,23.62
2022-08-27T12:33:01.153Z,23.20
2022-08-27T12:35:34.055Z,23.62
2022-08-27T12:38:11.722Z,23.80
2022-08-27T12:40:41.983Z,24.07
2022-08-27T12:43:13.497Z,24.08
2022-08-27T12:45:44.679Z,24.10
2022-08-27T12:48:12.582Z,24.16
2022-08-27T12:50:40.420Z,23.84
2022-08-27T12:53:27.607Z,23.85
2022-08-27T12:56:01.219Z,23.81
2022-08-27T12:58:40.188Z,23.81
2022-08-27T13:01:29.225Z,23.58
2022-08-27T13:03:57.741Z,23.33
2022-08-27T13:06:29.453Z,23.54
2022-08-27T13:09:00.108Z,23.67
2022-08-27T13:11:29.912Z,23.77
2022-08-27T13:14:08.439Z,23.96
2022-08-27T13:16:39.779Z,23.80
2022-08-27T13:19:08.166Z,23.89
2022-08-27T13:21:35.815Z,23.81
2022-08-27T13:24:06.587Z,23.89
2022-08-27T13:26:37.431Z,24.16
2022-08-27T13:29:06.611Z,24.44
2022-08-27T13:31:35.761Z,24.32
2022-08-27T13:34:06.315Z,24.48
2022-08-27T13:36:36.578Z,24.40
2022-08-27T13:39:07.127Z,24.12
2022-08-27T13:41:36.409Z,24.20
2022-08-27T13:44:08.575Z,24.33
2022-08-27T13:46:46.163Z,24.40
2022-08-27T13:49:18.834Z,24.48
2022-08-27T13:51:47.684Z,24.37
2022-08-27T13:54:17.854Z,24.19
2022-08-27T13:57:08.240Z,24.23
2022-08-27T13:59:42.167Z,24.26
2022-08-27T14:02:22.764Z,24.29
2022-08-27T14:04:52.461Z,24.22
2022-08-27T14:07:24.746Z,24.28
2022-08-27T14:09:55.939Z,24.46
2022-08-27T14:12:32.945Z,24.52
2022-08-27T14:15:11.899Z,24.04
2022-08-27T14:17:39.655Z,23.62
2022-08-27T14:20:09.292Z,23.91
2022-08-27T14:22:37.137Z,24.18
2022-08-27T14:25:07.204Z,24.11
2022-08-27T14:27:36.238Z,24.00
2022-08-27T14:30:04.116Z,24.05
2022-08-27T14:32:33.308Z,24.27
2022-08-27T14:35:01.014Z,24.43
2022-08-27T14:37:28.708Z,24.32
2022-08-27T14:39:56.629Z,24.34
2022-08-27T14:42:25.782Z,24.35
2022-08-27T14:44:56.453Z,24.40
2022-08-27T14:47:26.706Z,24.50
2022-08-27T14:49:55.283Z,24.33
2022-08-27T14:52:22.956Z,24.40
2022-08-27T14:54:50.595Z,24.52
2022-08-27T14:57:19.395Z,24.62
2022-08-27T14:59:48.415Z,24.85
2022-08-27T15:02:17.143Z,24.89
2022-08-27T15:04:48.012Z,24.95
2022-08-27T15:07:16.124Z,24.69
2022-08-27T15:09:44.749Z,24.88
2022-08-27T15:12:25.883Z,24.76
2022-08-27T15:14:55.935Z,24.64
2022-08-27T15:17:33.321Z,24.78
2022-08-27T15:20:03.305Z,24.62
2022-08-27T15:22:34.034Z,24.63
2022-08-27T15:25:03.183Z,24.55
2022-08-27T15:27:38.000Z,24.34
2022-08-27T15:30:09.956Z,24.20
2022-08-27T15:32:39.808Z,24.09
2022-08-27T15:35:12.245Z,23.99
2022-08-27T15:37:39.948Z,24.15
2022-08-27T15:40:09.340Z,23.94
2022-08-27T15:42:37.121Z,23.98
2022-08-27T15:45:06.118Z,24.11
2022-08-27T15:47:35.346Z,23.87
2022-08-27T15:50:03.259Z,23.99
2022-08-27T15:52:40.600Z,23.78
2022-08-27T15:55:15.469Z,23.42
2022-08-27T15:57:43.142Z,23.42
2022-08-27T16:00:12.201Z,23.54
2022-08-27T16:02:42.034Z,23.42
2022-08-27T16:05:09.967Z,23.46
2022-08-27T16:07:37.746Z,23.38
2022-08-27T16:10:06.658Z,23.14
2022-08-27T16:12:34.765Z,23.15
2022-08-27T16:15:02.603Z,23.06
2022-08-27T16:17:30.272Z,22.88
2022-08-27T16:19:59.347Z,22.72
2022-08-27T16:22:26.992Z,22.72
2022-08-27T16:24:54.746Z,22.52
2022-08-27T16:27:22.395Z,22.50
2022-08-27T16:29:50.957Z,22.61
2022-08-27T16:32:19.987Z,22.74
2022-08-27T16:34:55.383Z,22.65
2022-08-27T16:37:25.397Z,22.64
2022-08-27T16:39:53.401Z,22.51
2022-08-27T16:42:21.357Z,22.27
2022-08-27T16:44:49.065Z,22.19
2022-08-27T16:47:17.027Z,22.12
2022-08-27T16:50:02.522Z,21.92
2022-08-27T16:52:31.586Z,21.86
2022-08-27T16:55:00.172Z,21.58
2022-08-27T16:57:27.984Z,21.40
2022-08-27T16:59:56.266Z,21.55
2022-08-27T17:02:30.391Z,21.44
2022-08-27T17:05:12.319Z,21.46
2022-08-27T17:07:48.971Z,21.61
2022-08-27T17:10:17.262Z,21.54
2022-08-27T17:12:46.233Z,21.44
2022-08-27T17:15:14.797Z,21.54
2022-08-27T17:17:42.589Z,21.60
2022-08-27T17:20:10.915Z,21.65
2022-08-27T17:22:38.817Z,21.54
2022-08-27T17:25:09.369Z,21.57
2022-08-27T17:27:37.119Z,21.33
2022-08-27T17:30:05.647Z,21.33
2022-08-27T17:32:36.210Z,21.44
2022-08-27T17:35:06.298Z,21.47
2022-08-27T17:37:34.142Z,21.53
2022-08-27T17:40:02.081Z,21.51
2022-08-27T17:42:31.629Z,21.56
2022-08-27T17:45:00.049Z,21.59
2022-08-27T17:47:27.838Z,21.57
2022-08-27T17:49:55.506Z,21.51
2022-08-27T17:52:23.615Z,21.45
2022-08-27T17:54:53.683Z,21.19
2022-08-27T17:57:23.645Z,21.16
2022-08-27T17:59:53.457Z,21.24
2022-08-27T18:02:24.287Z,21.32
2022-08-27T18:04:52.406Z,21.34
2022-08-27T18:07:20.498Z,21.24
2022-08-27T18:09:48.588Z,21.24
2022-08-27T18:12:19.222Z,21.18
2022-08-27T18:14:47.059Z,21.20
2022-08-27T18:17:16.148Z,21.23
2022-08-27T18:19:45.857Z,21.17
2022-08-27T18:22:15.416Z,21.23
2022-08-27T18:24:43.065Z,21.26
2022-08-27T18:27:10.770Z,21.20
2022-08-27T18:29:38.402Z,21.22
2022-08-27T18:32:06.206Z,21.19
2022-08-27T18:34:35.457Z,21.19
2022-08-27T18:37:08.651Z,21.15
2022-08-27T18:39:39.457Z,21.05
2022-08-27T18:42:07.567Z,20.99
2022-08-27T18:44:36.952Z,20.96
2022-08-27T18:47:05.019Z,20.80
2022-08-27T18:49:32.760Z,20.66
2022-08-27T18:52:01.914Z,20.60
2022-08-27T18:54:29.678Z,20.50
2022-08-27T18:56:57.348Z,20.48
2022-08-27T18:59:27.197Z,20.42
2022-08-27T19:01:56.064Z,20.39
2022-08-27T19:04:24.534Z,20.34
2022-08-27T19:06:52.293Z,20.30
2022-08-27T19:09:21.453Z,20.24
2022-08-27T19:11:51.386Z,20.27
2022-08-27T19:14:19.087Z,20.29
2022-08-27T19:16:50.342Z,20.23
2022-08-27T19:20:01.340Z,20.21
2022-08-27T19:26:22.582Z,20.22
2022-08-27T19:28:56.670Z,20.26
2022-08-27T19:31:39.395Z,20.33
2022-08-27T19:34:25.065Z,20.32
2022-08-27T19:37:04.836Z,20.34
2022-08-27T19:39:36.376Z,20.37
2022-08-27T19:42:12.570Z,20.39
2022-08-27T19:44:49.531Z,20.38
2022-08-27T19:47:34.477Z,20.33
2022-08-27T19:50:09.337Z,20.34
2022-08-27T19:52:40.443Z,20.33
2022-08-27T19:55:14.100Z,20.29
2022-08-27T19:57:43.633Z,20.19
2022-08-27T20:00:17.158Z,20.14
2022-08-27T20:02:45.424Z,20.19
2022-08-27T20:05:20.373Z,20.24
2022-08-27T20:07:48.661Z,20.18
2022-08-27T20:10:16.703Z,20.18
2022-08-27T20:12:45.822Z,20.06
2022-08-27T20:15:13.851Z,20.08
2022-08-27T20:17:42.868Z,20.02
2022-08-27T20:20:11.781Z,19.91
2022-08-27T20:22:40.673Z,19.88
2022-08-27T20:25:18.151Z,19.82
2022-08-27T20:27:47.688Z,19.74
2022-08-27T20:30:16.087Z,19.69
2022-08-27T20:32:44.108Z,19.59
2022-08-27T20:35:12.298Z,19.50
2022-08-27T20:37:42.429Z,19.42
2022-08-27T20:40:13.752Z,19.29
2022-08-27T20:42:41.664Z,19.32
2022-08-27T20:45:12.322Z,19.31
2022-08-27T20:47:40.587Z,19.40
2022-08-27T20:50:08.844Z,19.28
2022-08-27T20:52:37.052Z,19.14
2022-08-27T20:55:06.595Z,19.14
2022-08-27T20:57:34.319Z,19.16
2022-08-27T21:00:20.100Z,19.15
2022-08-27T21:02:49.087Z,18.84
2022-08-27T21:05:18.553Z,18.78
2022-08-27T21:07:48.809Z,18.72
2022-08-27T21:10:16.868Z,18.72
2022-08-27T21:12:44.781Z,18.64
2022-08-27T21:15:13.811Z,18.77
2022-08-27T21:17:41.464Z,18.88
2022-08-27T21:20:12.074Z,18.96
2022-08-27T21:22:40.111Z,19.00
2022-08-27T21:25:08.486Z,18.91
2022-08-27T21:27:36.394Z,18.97
2022-08-27T21:30:05.878Z,19.02
2022-08-27T21:32:33.566Z,19.03
2022-08-27T21:35:01.706Z,19.06
2022-08-27T21:37:33.014Z,19.01
2022-08-27T21:40:00.776Z,19.06
2022-08-27T21:42:28.460Z,19.09
2022-08-27T21:44:56.163Z,19.00
2022-08-27T21:47:23.860Z,18.99
2022-08-27T21:49:51.540Z,19.02
2022-08-27T21:52:19.276Z,18.94
2022-08-27T21:54:48.348Z,18.91
2022-08-27T21:57:16.453Z,18.93
2022-08-27T21:59:46.970Z,18.91
2022-08-27T22:02:38.946Z,18.94
2022-08-27T22:05:04.196Z,18.97
2022-08-27T22:07:31.943Z,19.00
2022-08-27T22:10:01.001Z,19.04
2022-08-27T22:12:28.703Z,18.92
2022-08-27T22:14:56.325Z,18.92
2022-08-27T22:17:23.949Z,18.98
2022-08-27T22:19:53.862Z,19.00
2022-08-27T22:22:21.479Z,19.00
2022-08-27T22:24:49.274Z,19.02
2022-08-27T22:27:18.247Z,19.00
2022-08-27T22:29:45.996Z,18.93
2022-08-27T22:32:13.655Z,18.86
2022-08-27T22:34:41.253Z,18.75
2022-08-27T22:37:08.921Z,18.74
2022-08-27T22:39:36.764Z,18.74
2022-08-27T22:42:05.172Z,18.74
2022-08-27T22:44:34.228Z,18.70
2022-08-27T22:47:01.959Z,18.66
2022-08-27T22:49:29.583Z,18.61
2022-08-27T22:51:57.177Z,18.62
2022-08-27T22:54:24.807Z,18.63
2022-08-27T22:56:52.439Z,18.54
2022-08-27T22:59:20.254Z,18.50
2022-08-27T23:01:49.208Z,18.50
2022-08-27T23:04:18.480Z,18.45
2022-08-27T23:06:46.228Z,18.40
2022-08-27T23:09:14.020Z,18.40
2022-08-27T23:11:42.013Z,18.41
2022-08-27T23:14:09.691Z,18.40
2022-08-27T23:16:42.738Z,18.40
2022-08-27T23:19:12.212Z,18.43
2022-08-27T23:21:42.736Z,18.45
2022-08-27T23:24:10.487Z,18.47
2022-08-27T23:26:59.398Z,18.49
2022-08-27T23:29:28.274Z,18.46
2022-08-27T23:31:58.406Z,18.48
2022-08-27T23:34:27.703Z,18.39
2022-08-27T23:36:56.130Z,18.29
2022-08-27T23:39:23.790Z,18.28
2022-08-27T23:41:51.410Z,18.25
2022-08-27T23:44:19.024Z,18.20
2022-08-27T23:46:48.441Z,18.26
2022-08-27T23:49:18.255Z,18.32
2022-08-27T23:51:47.230Z,18.32
2022-08-27T23:54:14.867Z,18.33
2022-08-27T23:56:42.506Z,18.33
2022-08-27T23:59:10.114Z,18.30
